Latest Coastal Weather Observations for Cape Wessel

IDD60701

Issued at 1:21 am CST Sunday 26 June 2016 (issued every 10 minutes, with the page automatically refreshed every 10 minutes)

About coastal observations | Map of coastal stations | Coastal observations for NT | Marine services | Other Formats
Station Details ID: 200786 Name: CAPE WESSEL Lat: -11.00 Lon: 136.76 Height: 18.0 m
Data from the previous 72 hours. | See also: Recent months at Cape Wessel
Date/Time
CST
Temp
°C
Wind Pressure Rain since
9am
mm
Weather Cloud Vis
km
Sea
Height
m
Swell
Dir  Spd
kts
Gust
kts
hPa Trend Height
m
Period
s
Dir
26/01:00am 27.1 ESE 14 16 1012.0 - 0.6 - - - - - - -
26/12:30am 26.8 ESE 13 16 1011.9 - 0.6 - - - - - - -
26/12:00am 26.9 ESE 13 16 1011.9 - 0.6 - - - - - - -
 
Date/Time
CST
Temp
°C
Wind Pressure Rain since
9am
mm
Weather Cloud Vis
km
Sea
Height
m
Swell
Dir  Spd
kts
Gust
kts
hPa Trend Height
m
Period
s
Dir
25/11:30pm 26.8 ESE 14 17 1011.9 - 0.6 - - - - - - -
25/11:00pm 26.8 ESE 15 19 1012.0 - 0.6 - - - - - - -
25/10:30pm 26.9 ESE 16 19 1012.2 - 0.6 - - - - - - -
25/10:00pm 27.0 ESE 15 20 1012.2 - 0.6 - - - - - - -
25/09:30pm 26.9 ESE 16 20 1012.2 - 0.6 - - - - - - -
25/09:00pm 27.1 ESE 16 19 1012.3 - 0.6 - - - - - - -
25/08:30pm 27.1 ESE 16 19 1012.3 - 0.6 - - - - - - -
25/08:00pm 27.1 ESE 17 20 1012.0 - 0.6 - - - - - - -
25/07:30pm 27.4 E 16 19 1011.7 - 0.6 - - - - - - -
25/07:00pm 27.3 ESE 16 20 1011.4 - 0.6 - - - - - - -
25/06:30pm 27.4 ESE 18 21 1011.1 - 0.6 - - - - - - -
25/06:00pm 27.5 ESE 16 20 1010.9 - 0.6 - - - - - - -
25/05:30pm 27.9 ESE 17 21 1010.8 - 0.6 - - - - - - -
25/05:00pm 28.2 ESE 16 19 1010.5 - 0.6 - - - - - - -
25/04:30pm 28.7 E 17 21 1010.5 - 0.6 - - - - - - -
25/04:00pm 28.8 ESE 18 22 1010.4 - 0.6 - - - - - - -
25/03:30pm 29.4 ESE 19 23 1010.2 - 0.6 - - - - - - -
25/03:00pm 29.8 E 18 23 1010.3 - 0.6 - - - - - - -
25/02:30pm 30.0 E 19 23 1010.2 - 0.6 - - - - - - -
25/02:00pm 29.2 ESE 20 24 1010.4 - 0.6 - - - - - - -
25/01:30pm 29.2 E 19 23 1010.9 - 0.6 - - - - - - -
25/01:00pm 28.6 E 19 23 1011.1 - 0.6 - - - - - - -
25/12:30pm 28.4 ESE 13 16 1011.4 - 0.6 - - - - - - -
25/12:00pm 28.7 E 15 19 1011.7 - 0.6 Recent precip. - - - - - -
25/11:30am 25.8 ESE 19 25 1012.1 - 0.6 - - - - - - -
25/11:00am 26.5 ESE 18 22 1012.4 - 0.4 - - - - - - -
25/10:30am 26.4 ESE 21 25 1012.5 - 0.4 - - - - - - -
25/10:00am 27.4 ESE 23 30 1012.6 - 0.0 - - - - - - -
25/09:30am 27.0 ESE 20 26 1012.4 - 0.0 - - - - - - -
25/09:00am 26.8 ESE 19 24 1012.5 - 2.0 - - - - - - -
25/08:30am 25.8 ESE 23 28 1012.3 - 2.0 - - - - - - -
25/08:00am 25.6 SE 19 24 1011.8 - 2.0 - - - - - - -
25/07:30am 25.0 ESE 23 29 1011.8 - 2.0 - - - - - - -
25/07:00am 24.9 ESE 25 31 1011.4 - 1.4 - - - - - - -
25/06:49am 25.8 ESE 22 31 1011.2 - 0.8 - - - - - - -
25/06:30am 27.2 SE 17 21 1010.8 - 0.6 - - - - - - -
25/06:00am 27.1 SE 16 20 1010.6 - 0.6 - - - - - - -
25/05:30am 27.0 SE 17 21 1010.5 - 0.6 - - - - - - -
25/05:00am 27.4 ESE 17 22 1010.5 - 0.6 - - - - - - -
25/04:30am 27.6 SE 17 19 1010.3 - 0.6 - - - - - - -
25/04:00am 27.5 SE 17 21 1010.2 - 0.6 - - - - - - -
25/03:30am 27.3 SE 18 21 1010.3 - 0.6 - - - - - - -
25/03:00am 27.4 ESE 17 20 1010.5 - 0.6 - - - - - - -
25/02:30am 27.3 ESE 17 20 1010.6 - 0.6 - - - - - - -
25/02:00am 27.3 ESE 17 21 1010.8 - 0.6 - - - - - - -
25/01:30am 27.4 ESE 18 22 1011.0 - 0.6 - - - - - - -
25/01:00am 27.4 ESE 17 22 1011.1 - 0.6 - - - - - - -
25/12:30am 27.4 ESE 18 22 1011.3 - 0.6 - - - - - - -
25/12:00am 27.3 ESE 17 20 1011.3 - 0.6 - - - - - - -
 
Date/Time
CST
Temp
°C
Wind Pressure Rain since
9am
mm
Weather Cloud Vis
km
Sea
Height
m
Swell
Dir  Spd
kts
Gust
kts
hPa Trend Height
m
Period
s
Dir
24/11:30pm 27.4 ESE 17 21 1011.3 - 0.6 - - - - - - -
24/11:00pm 27.5 ESE 17 21 1011.4 - 0.6 - - - - - - -
24/10:30pm 27.5 ESE 18 22 1011.6 - 0.6 - - - - - - -
24/10:00pm 27.6 ESE 19 23 1011.7 - 0.6 - - - - - - -
24/09:30pm 27.4 ESE 17 22 1011.6 - 0.6 - - - - - - -
24/09:00pm 27.5 ESE 20 25 1011.3 - 0.6 - - - - - - -
24/08:30pm 27.3 ESE 21 25 1011.1 - 0.6 - - - - - - -
24/08:00pm 27.7 ESE 22 27 1011.0 - 0.6 - - - - - - -
24/07:30pm 27.2 SE 17 21 1010.7 - 0.6 - - - - - - -
24/07:00pm 27.1 ESE 20 26 1010.4 - 0.6 - - - - - - -
24/06:30pm 27.0 ESE 20 26 1010.2 - 0.6 - - - - - - -
24/06:00pm 26.9 SE 17 22 1010.0 - 0.6 - - - - - - -
24/05:30pm 27.0 SE 16 20 1009.9 - 0.6 - - - - - - -
24/05:00pm 26.8 SE 21 26 1010.1 - 0.6 - - - - - - -
24/04:30pm 27.5 SE 17 20 1010.1 - 0.6 - - - - - - -
24/04:00pm 27.8 SE 15 19 1010.2 - 0.6 - - - - - - -
24/03:30pm 27.8 ESE 17 22 1010.1 - 0.6 - - - - - - -
24/03:00pm 28.2 ESE 15 19 1010.2 - 0.6 - - - - - - -
24/02:30pm 28.4 ESE 13 19 1010.2 - 0.6 - - - - - - -
24/02:00pm 27.9 SE 14 17 1010.5 - 0.6 - - - - - - -
24/01:30pm 28.1 SE 14 17 1010.9 - 0.6 - - - - - - -
24/01:00pm 28.1 SE 15 20 1011.3 - 0.6 - - - - - - -
24/12:30pm 27.8 SE 14 17 1011.5 - 0.6 - - - - - - -
24/12:00pm 27.5 SE 14 16 1012.0 - 0.6 - - - - - - -
24/11:30am 27.1 SE 15 18 1012.5 - 0.6 - - - - - - -
24/11:00am 26.5 ESE 16 20 1012.7 - 0.6 - - - - - - -
24/10:30am 26.6 SE 14 18 1012.9 - 0.6 - - - - - - -
24/10:00am 27.6 SSE 16 20 1012.7 - 0.0 - - - - - - -
24/09:30am 27.4 SSE 14 18 1012.7 - 0.0 - - - - - - -
24/09:00am 27.3 SSE 13 16 1012.5 - 0.0 - - - - - - -
24/08:30am 27.3 SE 16 19 1012.4 - 0.0 - - - - - - -
24/08:00am 27.2 SE 15 18 1011.9 - 0.0 - - - - - - -
24/07:30am 27.0 SSE 13 17 1011.2 - 0.0 - - - - - - -
24/07:00am 26.6 SE 11 15 1011.2 - 0.0 - - - - - - -
24/06:30am 26.6 SSE 13 17 1010.5 - 0.0 - - - - - - -
24/06:00am 27.4 SE 15 19 1010.2 - 0.0 - - - - - - -
24/05:30am 27.0 SE 16 19 1010.0 - 0.0 - - - - - - -
24/05:00am 27.3 SE 19 29 1009.8 - 0.0 - - - - - - -
24/04:56am 27.5 SE 16 29 1009.8 - 0.0 - - - - - - -
24/04:30am 27.7 SE 15 18 1009.6 - 0.0 - - - - - - -
24/04:00am 27.6 SE 15 19 1009.3 - 0.0 - - - - - - -
24/03:30am 27.5 SSE 15 19 1009.4 - 0.0 - - - - - - -
24/03:00am 27.6 SSE 15 19 1009.4 - 0.0 - - - - - - -
24/02:30am 27.7 SSE 14 19 1009.7 - 0.0 - - - - - - -
24/02:00am 27.7 SSE 15 19 1009.9 - 0.0 - - - - - - -
24/01:30am 27.7 SE 17 19 1010.1 - 0.0 - - - - - - -
24/01:00am 27.9 SE 16 19 1010.4 - 0.0 - - - - - - -
24/12:30am 27.7 SE 17 20 1010.4 - 0.0 - - - - - - -
24/12:00am 27.8 SE 16 20 1010.7 - 0.0 - - - - - - -
 
Date/Time
CST
Temp
°C
Wind Pressure Rain since
9am
mm
Weather Cloud Vis
km
Sea
Height
m
Swell
Dir  Spd
kts
Gust
kts
hPa Trend Height
m
Period
s
Dir
23/11:30pm 27.8 SSE 18 22 1010.7 - 0.0 - - - - - - -
23/11:00pm 27.9 SE 17 21 1010.7 - 0.0 - - - - - - -
23/10:30pm 27.9 SE 19 22 1010.9 - 0.0 - - - - - - -
23/10:00pm 28.1 SE 18 22 1011.0 - 0.0 - - - - - - -
23/09:30pm 28.0 SE 18 22 1010.9 - 0.0 - - - - - - -
23/09:00pm 27.9 SE 17 21 1010.9 - 0.0 - - - - - - -
23/08:30pm 28.0 SE 18 23 1010.5 - 0.0 - - - - - - -
23/08:00pm 28.0 SE 17 21 1010.1 - 0.0 - - - - - - -
23/07:30pm 28.1 SE 17 22 1009.7 - 0.0 - - - - - - -
23/07:00pm 28.0 SE 17 21 1009.5 - 0.0 - - - - - - -
23/06:30pm 28.0 SE 18 21 1009.2 - 0.0 - - - - - - -
23/06:00pm 27.9 SE 17 21 1009.0 - 0.0 - - - - - - -
23/05:30pm 28.1 SE 18 21 1008.8 - 0.0 - - - - - - -
23/05:00pm 28.2 SE 15 19 1008.8 - 0.0 - - - - - - -
23/04:30pm 28.4 SE 17 21 1008.5 - 0.0 - - - - - - -
23/04:00pm 28.5 SE 18 22 1008.2 - 0.0 - - - - - - -
23/03:30pm 28.2 SE 16 21 1008.2 - 0.0 - - - - - - -
23/03:00pm 28.9 SE 17 20 1008.3 - 0.0 - - - - - - -
23/02:30pm 29.5 SE 17 21 1008.6 - 0.0 - - - - - - -
23/02:00pm 29.0 SE 16 20 1009.2 - 0.0 - - - - - - -
23/01:30pm 29.1 SE 17 21 1009.2 - 0.0 - - - - - - -
23/01:00pm 29.2 SE 18 22 1009.3 - 0.0 - - - - - - -
23/12:30pm 30.1 SSE 15 19 1009.8 - 0.0 - - - - - - -
23/12:00pm 29.4 SSE 16 20 1010.3 - 0.0 - - - - - - -
23/11:30am 29.7 SE 17 20 1010.6 - 0.0 - - - - - - -
23/11:00am 29.8 SE 15 18 1010.7 - 0.0 - - - - - - -
23/10:30am 29.2 SE 16 19 1011.1 - 0.0 - - - - - - -
23/10:00am 28.9 SE 15 21 1011.5 - 0.0 - - - - - - -
23/09:30am 28.6 SE 16 21 1011.2 - 0.0 - - - - - - -
23/09:00am 28.2 SE 19 21 1011.2 - 5.6 - - - - - - -
23/08:30am 27.9 SE 18 21 1010.9 - 5.6 - - - - - - -
23/08:00am 27.6 SE 17 21 1010.5 - 5.6 - - - - - - -
23/07:30am 27.1 SSE 17 21 1010.2 - 5.6 - - - - - - -
23/07:00am 27.0 SE 17 19 1010.0 - 5.6 - - - - - - -
23/06:30am 26.8 SE 14 18 1009.9 - 5.6 - - - - - - -
23/06:00am 26.7 SE 13 17 1009.5 - 5.6 - - - - - - -
23/05:30am 26.9 SE 15 17 1009.5 - 5.6 - - - - - - -
23/05:00am 27.0 SE 14 17 1009.2 - 5.6 - - - - - - -
23/04:30am 27.1 SE 15 17 1009.2 - 5.6 - - - - - - -
23/04:00am 26.9 SE 14 17 1009.1 - 5.6 - - - - - - -
23/03:30am 26.8 SE 13 15 1009.5 - 5.6 - - - - - - -
23/03:00am 26.9 SE 14 16 1009.7 - 5.6 - - - - - - -
23/02:30am 27.0 SE 15 17 1009.8 - 5.6 - - - - - - -
23/02:00am 27.1 SE 16 18 1009.9 - 5.6 - - - - - - -
23/01:30am 27.0 SE 15 18 1010.1 - 5.6 - - - - - - -

Other Formats:

Comma delimited format used in spreadsheet applications
http://www.bom.gov.au/fwo/IDD60701/IDD60701.94147.axf

JavaScript Object Notation format (JSON) in row-major order
http://www.bom.gov.au/fwo/IDD60701/IDD60701.94147.json